createdAt,value
2022-10-02T00:01:58.040Z,1.80
2022-10-02T00:04:41.730Z,4.47
2022-10-02T00:07:11.540Z,3.80
2022-10-02T00:09:43.695Z,4.40
2022-10-02T00:12:17.095Z,2.03
2022-10-02T00:14:46.481Z,12.73
2022-10-02T00:17:22.410Z,4.40
2022-10-02T00:19:54.007Z,2.10
2022-10-02T00:22:23.663Z,2.77
2022-10-02T00:25:00.546Z,1.83
2022-10-02T00:28:00.852Z,2.50
2022-10-02T00:30:33.782Z,2.00
2022-10-02T00:33:29.488Z,2.10
2022-10-02T00:36:00.726Z,3.37
2022-10-02T00:38:36.475Z,4.23
2022-10-02T00:41:09.340Z,2.33
2022-10-02T00:43:57.179Z,2.77
2022-10-02T00:46:40.930Z,5.40
2022-10-02T00:49:16.294Z,1.60
2022-10-02T00:52:09.574Z,2.73
2022-10-02T00:54:48.389Z,2.10
2022-10-02T00:57:33.746Z,2.30
2022-10-02T01:00:17.509Z,4.20
2022-10-02T01:02:50.052Z,2.37
2022-10-02T01:05:38.081Z,3.03
2022-10-02T01:08:06.019Z,4.90
2022-10-02T01:10:34.777Z,1.90
2022-10-02T01:13:01.417Z,2.23
2022-10-02T01:15:32.174Z,2.43
2022-10-02T01:17:59.186Z,3.80
2022-10-02T01:20:47.621Z,4.30
2022-10-02T01:23:19.966Z,4.23
2022-10-02T01:25:47.119Z,5.33
2022-10-02T01:28:14.005Z,5.57
2022-10-02T01:30:43.184Z,4.00
2022-10-02T01:33:12.476Z,3.30
2022-10-02T01:35:39.991Z,2.03
2022-10-02T01:38:10.969Z,4.10
2022-10-02T01:40:39.808Z,3.13
2022-10-02T01:43:17.205Z,3.47
2022-10-02T01:46:16.565Z,2.77
2022-10-02T01:48:46.345Z,2.43
2022-10-02T01:51:20.425Z,2.47
2022-10-02T01:53:56.294Z,6.33
2022-10-02T01:56:59.238Z,3.40
2022-10-02T01:59:57.220Z,3.07
2022-10-02T02:03:02.598Z,2.37
2022-10-02T02:05:38.646Z,10.40
2022-10-02T02:08:08.921Z,5.90
2022-10-02T02:10:45.174Z,2.50
2022-10-02T02:13:19.170Z,3.27
2022-10-02T02:16:13.832Z,2.10
2022-10-02T02:18:47.536Z,2.90
2022-10-02T02:21:22.220Z,6.10
2022-10-02T02:23:50.884Z,2.37
2022-10-02T02:26:19.832Z,1.90
2022-10-02T02:28:56.059Z,3.23
2022-10-02T02:31:28.599Z,2.30
2022-10-02T02:34:02.529Z,3.00
2022-10-02T02:36:35.840Z,3.00
2022-10-02T02:39:12.901Z,2.10
2022-10-02T02:41:44.999Z,2.20
2022-10-02T02:44:19.518Z,5.20
2022-10-02T02:47:04.053Z,2.93
2022-10-02T02:49:45.892Z,4.30
2022-10-02T02:52:21.139Z,2.40
2022-10-02T02:54:54.987Z,3.40
2022-10-02T02:57:28.606Z,4.93
2022-10-02T02:59:57.370Z,2.77
2022-10-02T03:02:23.983Z,2.80
2022-10-02T03:04:50.618Z,4.70
2022-10-02T03:07:17.937Z,3.70
2022-10-02T03:10:08.214Z,6.03
2022-10-02T03:12:45.299Z,4.50
2022-10-02T03:15:38.722Z,4.43
2022-10-02T03:18:18.112Z,3.83
2022-10-02T03:20:47.727Z,5.90
2022-10-02T03:23:47.353Z,4.20
2022-10-02T03:26:28.557Z,2.50
2022-10-02T03:28:59.358Z,8.53
2022-10-02T03:31:30.806Z,3.37
2022-10-02T03:34:00.557Z,5.53
2022-10-02T03:36:27.717Z,4.70
2022-10-02T03:39:23.287Z,4.20
2022-10-02T03:41:43.667Z,4.40
2022-10-02T03:44:10.242Z,3.60
2022-10-02T03:46:37.023Z,2.73
2022-10-02T03:49:03.801Z,3.20
2022-10-02T03:51:30.987Z,2.93
2022-10-02T03:53:57.586Z,2.50
2022-10-02T03:56:40.249Z,2.13
2022-10-02T03:59:17.965Z,3.73
2022-10-02T04:01:50.185Z,3.33
2022-10-02T04:04:23.363Z,6.77
2022-10-02T04:07:00.878Z,3.53
2022-10-02T04:09:36.444Z,4.37
2022-10-02T04:12:11.009Z,4.03
2022-10-02T04:14:55.447Z,3.50
2022-10-02T04:17:44.013Z,4.87
2022-10-02T04:20:18.207Z,3.37
2022-10-02T04:22:54.597Z,6.63
2022-10-02T04:25:30.736Z,8.37
2022-10-02T04:28:02.296Z,4.63
2022-10-02T04:30:30.199Z,4.33
2022-10-02T04:33:02.974Z,4.03
2022-10-02T04:35:36.922Z,5.67
2022-10-02T04:38:09.573Z,5.53
2022-10-02T04:40:58.068Z,4.73
2022-10-02T04:43:43.252Z,7.57
2022-10-02T04:46:12.843Z,3.47
2022-10-02T04:49:07.880Z,6.77
2022-10-02T04:51:59.166Z,4.40
2022-10-02T04:54:45.953Z,4.77
2022-10-02T04:57:18.589Z,3.80
2022-10-02T05:00:09.452Z,4.80
2022-10-02T05:03:18.593Z,9.27
2022-10-02T05:06:06.952Z,3.97
2022-10-02T05:08:52.243Z,5.00
2022-10-02T05:11:37.354Z,6.10
2022-10-02T05:14:23.027Z,5.67
2022-10-02T05:17:05.059Z,5.10
2022-10-02T05:19:41.199Z,6.30
2022-10-02T05:22:32.715Z,10.70
2022-10-02T05:25:15.367Z,13.10
2022-10-02T05:28:07.361Z,6.67
2022-10-02T05:30:57.072Z,5.30
2022-10-02T05:33:55.929Z,6.97
2022-10-02T05:36:59.637Z,4.70
2022-10-02T05:39:36.615Z,8.33
2022-10-02T05:42:23.414Z,13.83
2022-10-02T05:44:59.745Z,18.70
2022-10-02T05:47:30.921Z,7.37
2022-10-02T05:50:03.584Z,14.10
2022-10-02T05:52:40.508Z,9.17
2022-10-02T05:55:19.868Z,4.33
2022-10-02T05:57:52.394Z,9.97
2022-10-02T06:00:34.169Z,13.00
2022-10-02T06:03:15.239Z,13.10
2022-10-02T06:06:00.753Z,12.17
2022-10-02T06:08:58.505Z,10.27
2022-10-02T06:11:33.674Z,12.43
2022-10-02T06:14:23.199Z,5.43
2022-10-02T06:16:57.794Z,9.90
2022-10-02T06:19:52.259Z,8.50
2022-10-02T06:22:21.547Z,3.50
2022-10-02T06:24:53.706Z,6.23
2022-10-02T06:27:31.423Z,9.40
2022-10-02T06:30:02.581Z,11.80
2022-10-02T06:32:48.277Z,15.23
2022-10-02T06:35:18.140Z,11.60
2022-10-02T06:37:51.013Z,10.30
2022-10-02T06:40:38.682Z,7.73
2022-10-02T06:43:22.822Z,11.20
2022-10-02T06:46:08.391Z,10.80
2022-10-02T06:48:58.655Z,8.40
2022-10-02T06:51:31.118Z,9.50
2022-10-02T06:54:29.220Z,7.03
2022-10-02T06:57:12.717Z,5.17
2022-10-02T06:59:42.268Z,5.33
2022-10-02T07:02:28.426Z,9.27
2022-10-02T07:05:21.949Z,6.23
2022-10-02T07:08:11.953Z,9.93
2022-10-02T07:11:04.809Z,15.40
2022-10-02T07:13:37.674Z,10.53
2022-10-02T07:16:14.005Z,8.67
2022-10-02T07:18:43.540Z,13.30
2022-10-02T07:21:18.236Z,9.70
2022-10-02T07:24:04.872Z,13.10
2022-10-02T07:26:48.083Z,9.07
2022-10-02T07:30:01.864Z,7.00
2022-10-02T07:32:59.736Z,9.87
2022-10-02T07:35:26.261Z,8.13
2022-10-02T07:38:02.970Z,6.00
2022-10-02T07:40:51.738Z,7.53
2022-10-02T07:43:36.787Z,11.80
2022-10-02T07:46:26.748Z,6.97
2022-10-02T07:49:36.669Z,4.83
2022-10-02T07:52:21.771Z,7.27
2022-10-02T07:55:03.154Z,7.50
2022-10-02T07:57:49.372Z,10.53
2022-10-02T08:00:18.787Z,8.43
2022-10-02T08:03:14.903Z,6.77
2022-10-02T08:05:52.452Z,5.30
2022-10-02T08:08:40.119Z,8.60
2022-10-02T08:11:13.032Z,9.83
2022-10-02T08:13:46.117Z,8.20
2022-10-02T08:16:16.444Z,7.63
2022-10-02T08:18:55.663Z,12.90
2022-10-02T08:21:27.510Z,7.23
2022-10-02T08:24:06.963Z,10.33
2022-10-02T08:26:48.026Z,6.27
2022-10-02T08:29:23.704Z,12.00
2022-10-02T08:31:54.343Z,12.87
2022-10-02T08:34:23.693Z,5.43
2022-10-02T08:37:08.930Z,6.40
2022-10-02T08:39:42.673Z,10.20
2022-10-02T08:42:40.261Z,6.70
2022-10-02T08:45:34.996Z,8.43
2022-10-02T08:48:23.589Z,5.07
2022-10-02T08:51:25.566Z,8.97
2022-10-02T08:54:13.942Z,7.53
2022-10-02T08:57:18.046Z,8.13
2022-10-02T09:00:14.797Z,4.90
2022-10-02T09:03:19.141Z,6.17
2022-10-02T09:05:51.989Z,9.70
2022-10-02T09:08:50.639Z,14.73
2022-10-02T09:11:26.153Z,4.10
2022-10-02T09:14:36.860Z,4.80
2022-10-02T09:17:30.872Z,8.83
2022-10-02T09:20:28.263Z,7.07
2022-10-02T09:23:03.901Z,5.80
2022-10-02T09:26:07.665Z,9.27
2022-10-02T09:28:56.280Z,7.60
2022-10-02T09:31:44.142Z,7.20
2022-10-02T09:34:36.686Z,5.73
2022-10-02T09:37:34.453Z,4.00
2022-10-02T09:40:19.702Z,6.40
2022-10-02T09:43:05.066Z,9.23
2022-10-02T09:45:53.972Z,12.77
2022-10-02T09:48:45.125Z,3.93
2022-10-02T09:51:49.427Z,5.57
2022-10-02T09:54:25.046Z,6.93
2022-10-02T09:57:19.519Z,8.40
2022-10-02T09:59:55.330Z,5.53
2022-10-02T10:02:59.546Z,8.00
2022-10-02T10:06:03.961Z,5.27
2022-10-02T10:08:55.513Z,4.53
2022-10-02T10:11:41.790Z,6.60
2022-10-02T10:14:18.269Z,4.77
2022-10-02T10:17:23.331Z,6.90
2022-10-02T10:19:59.550Z,6.03
2022-10-02T10:22:38.935Z,3.30
2022-10-02T10:25:33.703Z,4.03
2022-10-02T10:28:06.033Z,2.60
2022-10-02T10:31:02.115Z,3.83
2022-10-02T10:33:33.268Z,5.93
2022-10-02T10:36:32.012Z,4.80
2022-10-02T10:42:26.452Z,3.00
2022-10-02T10:45:22.855Z,4.20
2022-10-02T10:48:10.319Z,2.60
2022-10-02T10:50:39.717Z,5.07
2022-10-02T10:54:01.959Z,6.37
2022-10-02T10:56:33.470Z,4.77
2022-10-02T10:59:00.039Z,3.83
2022-10-02T11:01:37.839Z,5.33
2022-10-02T11:04:38.961Z,2.03
2022-10-02T11:07:17.649Z,3.73
2022-10-02T11:09:53.507Z,1.67
2022-10-02T11:12:39.147Z,4.03
2022-10-02T11:15:18.173Z,3.87
2022-10-02T11:17:58.898Z,5.43
2022-10-02T11:20:30.021Z,5.00
2022-10-02T11:22:59.885Z,1.30
2022-10-02T11:25:32.513Z,1.40
2022-10-02T11:28:28.612Z,1.80
2022-10-02T11:31:32.994Z,3.00
2022-10-02T11:34:47.283Z,1.57
2022-10-02T11:37:51.647Z,2.53
2022-10-02T11:40:34.105Z,3.57
2022-10-02T11:43:15.003Z,1.27
2022-10-02T11:46:13.030Z,0.80
2022-10-02T11:49:07.868Z,1.37
2022-10-02T11:51:59.334Z,1.20
2022-10-02T11:54:33.182Z,1.23
2022-10-02T11:57:16.576Z,3.63
2022-10-02T11:59:55.853Z,2.00
2022-10-02T12:02:41.862Z,1.23
2022-10-02T12:05:44.726Z,2.43
2022-10-02T12:08:53.717Z,4.30
2022-10-02T12:11:39.679Z,1.30
2022-10-02T12:14:54.209Z,1.20
2022-10-02T12:17:32.565Z,1.10
2022-10-02T12:20:36.283Z,1.40
2022-10-02T12:24:06.158Z,2.47
2022-10-02T12:26:55.080Z,2.23
2022-10-02T12:29:45.992Z,1.70
2022-10-02T12:32:27.074Z,1.40
2022-10-02T12:34:59.492Z,1.43
2022-10-02T12:37:29.643Z,1.30
2022-10-02T12:40:23.778Z,1.00
2022-10-02T12:43:09.226Z,1.10
2022-10-02T12:45:54.724Z,2.20
2022-10-02T12:48:38.794Z,2.70
2022-10-02T12:51:27.201Z,3.37
2022-10-02T12:54:12.611Z,2.30
2022-10-02T12:57:03.885Z,3.70
2022-10-02T12:59:55.798Z,3.40
2022-10-02T13:02:49.209Z,4.97
2022-10-02T13:05:26.107Z,3.00
2022-10-02T13:08:16.008Z,3.13
2022-10-02T13:10:50.001Z,3.87
2022-10-02T13:14:01.290Z,2.33
2022-10-02T13:16:27.900Z,1.60
2022-10-02T13:19:11.966Z,2.00
2022-10-02T13:21:58.915Z,1.97
2022-10-02T13:24:30.606Z,3.77
2022-10-02T13:27:06.488Z,2.70
2022-10-02T13:29:45.303Z,6.20
2022-10-02T13:32:41.170Z,1.60
2022-10-02T13:35:26.106Z,7.30
2022-10-02T13:38:07.767Z,1.47
2022-10-02T13:40:58.175Z,1.97
2022-10-02T13:43:56.499Z,0.87
2022-10-02T13:46:45.017Z,3.13
2022-10-02T13:49:41.948Z,1.97
2022-10-02T13:52:30.157Z,4.20
2022-10-02T13:55:15.110Z,3.20
2022-10-02T13:57:41.710Z,4.13
2022-10-02T14:00:21.834Z,1.60
2022-10-02T14:03:23.885Z,3.67
2022-10-02T14:06:20.227Z,1.83
2022-10-02T14:09:11.370Z,3.67
2022-10-02T14:11:41.363Z,1.60
2022-10-02T14:14:35.922Z,1.80
2022-10-02T14:17:12.310Z,1.47
2022-10-02T14:19:56.386Z,1.00
2022-10-02T14:22:40.911Z,2.23
2022-10-02T14:25:20.411Z,1.50
2022-10-02T14:27:47.061Z,1.10
2022-10-02T14:30:22.582Z,2.80
2022-10-02T14:33:27.666Z,1.73
2022-10-02T14:36:19.890Z,1.47
2022-10-02T14:39:08.352Z,1.30
2022-10-02T14:41:58.770Z,2.07
2022-10-02T14:44:50.113Z,3.07
2022-10-02T14:47:26.394Z,3.20
2022-10-02T14:50:14.443Z,2.17
2022-10-02T14:53:04.391Z,4.00
2022-10-02T14:55:44.464Z,2.90
2022-10-02T14:58:19.869Z,1.90
2022-10-02T15:01:02.266Z,2.43
2022-10-02T15:03:57.898Z,2.47
2022-10-02T15:06:40.913Z,2.27
2022-10-02T15:09:18.570Z,3.33
2022-10-02T15:11:56.767Z,2.23
2022-10-02T15:14:43.641Z,2.60
2022-10-02T15:17:41.213Z,2.70
2022-10-02T15:20:26.168Z,1.63
2022-10-02T15:23:04.846Z,2.53
2022-10-02T15:25:52.383Z,5.40
2022-10-02T15:28:54.571Z,13.73
2022-10-02T15:31:34.066Z,10.87
2022-10-02T15:34:19.545Z,8.17
2022-10-02T15:36:55.806Z,3.20
2022-10-02T15:39:53.307Z,8.33
2022-10-02T15:42:49.410Z,4.83
2022-10-02T15:45:24.863Z,8.37
2022-10-02T15:48:00.511Z,3.17
2022-10-02T15:50:51.462Z,3.03
2022-10-02T15:53:27.927Z,3.10
2022-10-02T15:56:25.602Z,2.90
2022-10-02T15:59:10.889Z,2.17
2022-10-02T16:02:10.865Z,2.40
2022-10-02T16:05:02.823Z,4.10
2022-10-02T16:07:57.927Z,2.77
2022-10-02T16:11:06.181Z,3.40
2022-10-02T16:13:41.395Z,2.30
2022-10-02T16:16:17.563Z,4.40
2022-10-02T16:18:56.422Z,2.10
2022-10-02T16:21:39.475Z,2.70
2022-10-02T16:24:42.105Z,11.23
2022-10-02T16:27:27.467Z,13.67
2022-10-02T16:30:05.404Z,12.03
2022-10-02T16:32:50.943Z,21.10
2022-10-02T16:35:44.631Z,14.40
2022-10-02T16:38:37.902Z,8.97
2022-10-02T16:41:38.534Z,8.20
2022-10-02T16:44:30.040Z,8.80
2022-10-02T16:47:13.962Z,13.40
2022-10-02T16:50:04.892Z,8.60
2022-10-02T16:52:49.050Z,5.20
2022-10-02T16:55:41.736Z,6.60
2022-10-02T16:58:29.011Z,13.03
2022-10-02T17:01:02.096Z,9.20
2022-10-02T17:03:35.760Z,6.97
2022-10-02T17:06:26.786Z,7.50
2022-10-02T17:09:17.385Z,10.30
2022-10-02T17:11:51.652Z,10.53
2022-10-02T17:14:38.159Z,10.87
2022-10-02T17:17:14.593Z,16.43
2022-10-02T17:20:04.128Z,12.20
2022-10-02T17:22:41.623Z,9.60
2022-10-02T17:25:32.869Z,14.13
2022-10-02T17:28:17.815Z,11.33
2022-10-02T17:31:15.572Z,11.70
2022-10-02T17:33:56.114Z,8.80
2022-10-02T17:36:54.501Z,8.93
2022-10-02T17:39:39.784Z,9.33
2022-10-02T17:42:32.639Z,5.80
2022-10-02T17:45:18.057Z,6.20
2022-10-02T17:48:02.801Z,6.03
2022-10-02T17:50:44.401Z,13.33
2022-10-02T17:54:07.607Z,7.57
2022-10-02T17:56:51.773Z,7.30
2022-10-02T17:59:42.831Z,8.00
2022-10-02T18:02:21.095Z,8.73
2022-10-02T18:05:03.083Z,7.47
2022-10-02T18:07:38.761Z,7.53
2022-10-02T18:10:28.656Z,9.70
2022-10-02T18:13:16.569Z,10.27
2022-10-02T18:15:49.300Z,8.50
2022-10-02T18:18:23.874Z,6.03
2022-10-02T18:21:30.955Z,9.43
2022-10-02T18:24:03.592Z,6.10
2022-10-02T18:26:49.548Z,22.80
2022-10-02T18:29:50.182Z,6.30
2022-10-02T18:32:48.589Z,10.77
2022-10-02T18:35:15.291Z,3.30
2022-10-02T18:38:11.351Z,3.20
2022-10-02T18:40:55.860Z,2.33
2022-10-02T18:43:49.305Z,3.07
2022-10-02T18:46:34.098Z,3.10
2022-10-02T18:49:00.658Z,3.57
2022-10-02T18:51:52.489Z,3.80
2022-10-02T18:54:32.363Z,3.03
2022-10-02T18:57:08.166Z,2.30
2022-10-02T18:59:44.881Z,16.47
2022-10-02T19:02:17.597Z,4.17
2022-10-02T19:05:12.395Z,4.30
2022-10-02T19:07:46.615Z,3.60
2022-10-02T19:10:21.304Z,4.97
2022-10-02T19:12:53.183Z,7.03
2022-10-02T19:15:27.272Z,4.90
2022-10-02T19:18:01.162Z,7.37
2022-10-02T19:20:37.033Z,3.80
2022-10-02T19:23:09.044Z,6.53
2022-10-02T19:25:36.439Z,6.83
2022-10-02T19:28:04.568Z,3.73
2022-10-02T19:30:33.380Z,5.67
2022-10-02T19:33:12.391Z,3.10
2022-10-02T19:35:42.942Z,7.03
2022-10-02T19:38:21.405Z,4.40
2022-10-02T19:40:54.217Z,5.07
2022-10-02T19:43:31.091Z,6.10
2022-10-02T19:46:01.788Z,9.10
2022-10-02T19:48:31.267Z,4.93
2022-10-02T19:51:01.008Z,2.83
2022-10-02T19:53:29.957Z,3.83
2022-10-02T19:55:58.804Z,3.90
2022-10-02T19:59:24.133Z,4.13
2022-10-02T20:01:57.646Z,5.40
2022-10-02T20:04:28.709Z,5.10
2022-10-02T20:06:58.062Z,7.93
2022-10-02T20:09:28.073Z,8.30
2022-10-02T20:12:01.130Z,5.60
2022-10-02T20:14:42.912Z,7.53
2022-10-02T20:17:12.689Z,7.60
2022-10-02T20:19:50.731Z,6.67
2022-10-02T20:22:49.080Z,5.63
2022-10-02T20:25:21.252Z,5.23
2022-10-02T20:27:59.326Z,6.43
2022-10-02T20:30:32.578Z,10.57
2022-10-02T20:33:06.842Z,4.87
2022-10-02T20:36:16.832Z,6.50
2022-10-02T20:39:07.313Z,6.30
2022-10-02T20:41:52.241Z,5.30
2022-10-02T20:44:19.135Z,5.83
2022-10-02T20:47:01.913Z,5.60
2022-10-02T20:49:55.446Z,6.00
2022-10-02T20:53:08.970Z,5.30
2022-10-02T20:55:43.721Z,4.23
2022-10-02T20:58:19.556Z,4.90
2022-10-02T21:01:08.128Z,4.77
2022-10-02T21:04:08.474Z,5.10
2022-10-02T21:06:44.141Z,6.43
2022-10-02T21:09:19.662Z,4.57
2022-10-02T21:12:07.756Z,6.10
2022-10-02T21:14:59.104Z,4.50
2022-10-02T21:17:31.927Z,8.93
2022-10-02T21:20:04.718Z,4.27
2022-10-02T21:22:58.984Z,7.83
2022-10-02T21:25:44.342Z,3.80
2022-10-02T21:28:17.414Z,5.50
2022-10-02T21:31:06.824Z,4.30
2022-10-02T21:33:42.201Z,5.17
2022-10-02T21:36:27.669Z,8.17
2022-10-02T21:39:36.059Z,7.63
2022-10-02T21:42:41.964Z,8.00
2022-10-02T21:45:46.486Z,7.90
2022-10-02T21:48:25.501Z,11.47
2022-10-02T21:51:13.911Z,8.80
2022-10-02T21:54:00.373Z,5.67
2022-10-02T21:56:56.378Z,6.03
2022-10-02T21:59:58.620Z,7.40
2022-10-02T22:02:34.343Z,6.93
2022-10-02T22:05:19.071Z,6.87
2022-10-02T22:07:56.335Z,6.27
2022-10-02T22:10:29.492Z,6.10
2022-10-02T22:13:12.202Z,8.23
2022-10-02T22:15:58.190Z,6.80
2022-10-02T22:18:45.086Z,9.87
2022-10-02T22:21:56.108Z,7.03
2022-10-02T22:24:55.935Z,7.93
2022-10-02T22:27:30.352Z,11.60
2022-10-02T22:29:57.820Z,11.97
2022-10-02T22:33:10.219Z,8.43
2022-10-02T22:35:54.823Z,8.30
2022-10-02T22:38:44.052Z,15.20
2022-10-02T22:41:22.901Z,11.10
2022-10-02T22:44:01.694Z,9.17
2022-10-02T22:46:31.338Z,7.90
2022-10-02T22:49:38.272Z,8.83
2022-10-02T22:52:18.659Z,15.37
2022-10-02T22:55:05.245Z,9.30
2022-10-02T22:57:52.625Z,7.97
2022-10-02T23:00:23.606Z,10.40
2022-10-02T23:03:19.382Z,13.90
2022-10-02T23:05:57.160Z,8.83
2022-10-02T23:08:44.918Z,6.50
2022-10-02T23:11:31.121Z,16.93
2022-10-02T23:14:21.122Z,9.00
2022-10-02T23:16:56.570Z,5.77
2022-10-02T23:19:38.727Z,9.87
2022-10-02T23:22:14.218Z,10.23
2022-10-02T23:25:00.376Z,14.77
2022-10-02T23:27:45.356Z,8.73
2022-10-02T23:30:19.315Z,9.07
2022-10-02T23:32:55.994Z,7.57
2022-10-02T23:35:25.584Z,6.23
2022-10-02T23:38:06.331Z,7.53
2022-10-02T23:41:09.608Z,7.87
2022-10-02T23:43:48.659Z,7.37
2022-10-02T23:46:25.735Z,7.17
2022-10-02T23:48:53.958Z,6.73
2022-10-02T23:51:33.063Z,6.83
2022-10-02T23:54:07.177Z,5.57
2022-10-02T23:57:10.969Z,5.77
